createdAt,value
2022-10-17T00:00:49.163Z,4.25
2022-10-17T00:03:16.950Z,3.75
2022-10-17T00:05:47.031Z,4.10
2022-10-17T00:08:17.481Z,4.28
2022-10-17T00:10:45.736Z,4.22
2022-10-17T00:13:13.308Z,3.90
2022-10-17T00:15:44.916Z,4.00
2022-10-17T00:18:13.616Z,4.20
2022-10-17T00:20:41.000Z,3.92
2022-10-17T00:23:10.467Z,3.50
2022-10-17T00:25:38.972Z,3.30
2022-10-17T00:28:08.727Z,4.10
2022-10-17T00:30:37.109Z,4.10
2022-10-17T00:33:04.748Z,3.78
2022-10-17T00:35:32.314Z,3.70
2022-10-17T00:37:59.803Z,4.10
2022-10-17T00:40:27.236Z,3.95
2022-10-17T00:42:54.760Z,3.50
2022-10-17T00:45:29.663Z,3.53
2022-10-17T00:48:05.241Z,3.67
2022-10-17T00:50:36.245Z,3.35
2022-10-17T00:53:06.223Z,3.30
2022-10-17T00:55:46.305Z,3.38
2022-10-17T00:58:15.692Z,3.40
2022-10-17T01:00:44.080Z,3.60
2022-10-17T01:03:11.844Z,3.22
2022-10-17T01:05:40.211Z,3.13
2022-10-17T01:08:08.305Z,3.53
2022-10-17T01:10:57.140Z,3.35
2022-10-17T01:13:41.664Z,3.83
2022-10-17T01:16:13.866Z,3.35
2022-10-17T01:19:00.079Z,3.88
2022-10-17T01:21:43.394Z,3.08
2022-10-17T01:24:34.545Z,3.40
2022-10-17T01:27:32.164Z,3.47
2022-10-17T01:30:23.696Z,3.08
2022-10-17T01:32:57.287Z,3.00
2022-10-17T01:35:38.130Z,3.10
2022-10-17T01:38:08.354Z,2.95
2022-10-17T01:40:43.366Z,3.20
2022-10-17T01:43:19.215Z,3.10
2022-10-17T01:46:06.664Z,3.03
2022-10-17T01:48:38.035Z,3.10
2022-10-17T01:51:23.617Z,3.10
2022-10-17T01:53:58.997Z,2.95
2022-10-17T01:56:30.179Z,3.33
2022-10-17T01:59:07.167Z,3.10
2022-10-17T02:01:37.743Z,3.05
2022-10-17T02:04:10.006Z,2.92
2022-10-17T02:06:38.523Z,2.90
2022-10-17T02:12:01.282Z,2.45
2022-10-17T02:17:50.723Z,2.90
2022-10-17T02:20:24.694Z,2.78
2022-10-17T02:23:22.183Z,2.60
2022-10-17T02:25:53.027Z,2.90
2022-10-17T02:28:21.824Z,2.60
2022-10-17T02:31:00.862Z,2.60
2022-10-17T02:33:32.927Z,2.72
2022-10-17T02:36:08.938Z,2.53
2022-10-17T02:38:36.969Z,2.42
2022-10-17T02:41:07.639Z,2.70
2022-10-17T02:43:36.948Z,2.78
2022-10-17T02:46:07.962Z,2.50
2022-10-17T02:48:42.289Z,2.65
2022-10-17T02:51:21.878Z,2.80
2022-10-17T02:53:58.430Z,3.05
2022-10-17T02:56:29.101Z,2.70
2022-10-17T02:58:59.777Z,2.65
2022-10-17T03:01:29.236Z,2.42
2022-10-17T03:04:15.486Z,2.38
2022-10-17T03:06:47.047Z,2.35
2022-10-17T03:09:14.988Z,2.72
2022-10-17T03:11:42.760Z,2.85
2022-10-17T03:14:10.449Z,2.72
2022-10-17T03:16:38.953Z,2.30
2022-10-17T03:19:06.478Z,2.58
2022-10-17T03:21:36.422Z,2.55
2022-10-17T03:24:04.608Z,2.20
2022-10-17T03:26:32.018Z,2.15
2022-10-17T03:28:59.445Z,2.38
2022-10-17T03:31:29.231Z,2.20
2022-10-17T03:33:57.201Z,2.50
2022-10-17T03:36:24.600Z,2.40
2022-10-17T03:38:56.341Z,2.65
2022-10-17T03:41:23.922Z,2.83
2022-10-17T03:43:54.048Z,2.35
2022-10-17T03:46:21.902Z,2.35
2022-10-17T03:48:49.685Z,2.50
2022-10-17T03:51:17.376Z,2.25
2022-10-17T03:53:50.186Z,2.30
2022-10-17T03:56:20.945Z,2.33
2022-10-17T03:58:56.569Z,2.60
2022-10-17T04:01:24.327Z,2.30
2022-10-17T04:03:53.751Z,2.55
2022-10-17T04:06:22.016Z,2.28
2022-10-17T04:08:51.020Z,2.30
2022-10-17T04:11:24.934Z,2.40
2022-10-17T04:13:55.718Z,2.60
2022-10-17T04:16:24.128Z,2.20
2022-10-17T04:19:00.134Z,2.45
2022-10-17T04:21:31.172Z,2.80
2022-10-17T04:24:05.763Z,2.67
2022-10-17T04:26:49.053Z,2.10
2022-10-17T04:29:17.384Z,2.33
2022-10-17T04:31:46.612Z,2.30
2022-10-17T04:34:25.329Z,2.10
2022-10-17T04:36:52.716Z,2.63
2022-10-17T04:39:20.547Z,2.38
2022-10-17T04:41:48.378Z,2.85
2022-10-17T04:44:16.033Z,2.20
2022-10-17T04:46:49.422Z,2.50
2022-10-17T04:49:17.052Z,2.40
2022-10-17T04:51:49.811Z,2.60
2022-10-17T04:54:25.200Z,2.60
2022-10-17T04:56:58.831Z,2.88
2022-10-17T04:59:26.787Z,3.00
2022-10-17T05:02:05.687Z,2.90
2022-10-17T05:04:34.606Z,2.80
2022-10-17T05:07:02.197Z,2.75
2022-10-17T05:09:50.668Z,2.30
2022-10-17T05:12:19.213Z,2.90
2022-10-17T05:14:48.406Z,2.60
2022-10-17T05:17:16.879Z,2.60
2022-10-17T05:19:45.172Z,2.60
2022-10-17T05:22:12.451Z,2.50
2022-10-17T05:24:41.687Z,2.63
2022-10-17T05:27:10.130Z,2.38
2022-10-17T05:29:40.081Z,2.47
2022-10-17T05:32:22.182Z,2.63
2022-10-17T05:34:49.538Z,2.70
2022-10-17T05:37:16.960Z,2.40
2022-10-17T05:39:51.505Z,2.33
2022-10-17T05:42:20.275Z,2.30
2022-10-17T05:44:48.361Z,2.60
2022-10-17T05:47:18.352Z,2.67
2022-10-17T05:49:50.012Z,2.92
2022-10-17T05:52:24.394Z,3.05
2022-10-17T05:55:14.700Z,3.30
2022-10-17T05:57:42.233Z,2.90
2022-10-17T06:00:14.999Z,3.03
2022-10-17T06:02:43.430Z,3.05
2022-10-17T06:05:14.689Z,2.72
2022-10-17T06:07:42.821Z,3.17
2022-10-17T06:10:12.973Z,3.08
2022-10-17T06:12:40.449Z,3.58
2022-10-17T06:15:08.861Z,2.95
2022-10-17T06:17:37.470Z,3.08
2022-10-17T06:20:05.367Z,2.78
2022-10-17T06:22:33.404Z,2.50
2022-10-17T06:25:02.642Z,2.95
2022-10-17T06:27:29.982Z,2.92
2022-10-17T06:29:59.873Z,3.13
2022-10-17T06:32:29.913Z,3.05
2022-10-17T06:34:57.442Z,2.85
2022-10-17T06:37:24.961Z,2.88
2022-10-17T06:39:53.323Z,2.95
2022-10-17T06:42:23.039Z,2.80
2022-10-17T06:47:53.470Z,4.47
2022-10-17T06:50:39.554Z,4.07
2022-10-17T06:53:16.927Z,3.45
2022-10-17T06:55:58.192Z,3.85
2022-10-17T06:58:50.858Z,3.97
2022-10-17T07:01:27.016Z,4.20
2022-10-17T07:03:58.993Z,4.28
2022-10-17T07:06:26.619Z,3.90
2022-10-17T07:08:56.713Z,3.53
2022-10-17T07:11:24.169Z,3.20
2022-10-17T07:13:52.948Z,3.80
2022-10-17T07:16:22.286Z,3.75
2022-10-17T07:18:57.193Z,3.65
2022-10-17T07:21:24.774Z,3.97
2022-10-17T07:23:52.556Z,3.85
2022-10-17T07:26:21.066Z,3.28
2022-10-17T07:28:53.399Z,3.67
2022-10-17T07:31:28.951Z,3.50
2022-10-17T07:33:56.338Z,3.13
2022-10-17T07:36:23.937Z,4.05
2022-10-17T07:38:51.465Z,3.20
2022-10-17T07:41:21.806Z,3.25
2022-10-17T07:43:50.530Z,3.42
2022-10-17T07:46:22.244Z,2.75
2022-10-17T07:48:50.347Z,3.20
2022-10-17T07:51:22.055Z,3.38
2022-10-17T07:53:49.674Z,3.33
2022-10-17T07:56:17.786Z,2.92
2022-10-17T07:58:45.137Z,3.17
2022-10-17T08:01:15.715Z,3.70
2022-10-17T08:03:45.661Z,3.40
2022-10-17T08:06:13.320Z,3.25
2022-10-17T08:08:41.679Z,3.33
2022-10-17T08:11:10.885Z,3.10
2022-10-17T08:13:39.066Z,3.80
2022-10-17T08:16:10.355Z,3.25
2022-10-17T08:18:40.216Z,2.85
2022-10-17T08:21:08.609Z,3.17
2022-10-17T08:23:37.556Z,2.85
2022-10-17T08:26:10.517Z,3.67
2022-10-17T08:31:11.971Z,3.90
2022-10-17T08:33:40.259Z,5.03
2022-10-17T08:36:09.059Z,3.95
2022-10-17T08:38:38.503Z,4.88
2022-10-17T08:41:50.455Z,5.47
2022-10-17T08:44:50.763Z,4.65
2022-10-17T08:47:35.319Z,4.85
2022-10-17T08:50:07.043Z,4.53
2022-10-17T08:53:02.933Z,5.32
2022-10-17T08:55:41.267Z,4.47
2022-10-17T08:58:30.970Z,4.50
2022-10-17T09:01:24.166Z,4.18
2022-10-17T09:04:27.163Z,4.13
2022-10-17T09:07:08.638Z,3.72
2022-10-17T09:09:45.176Z,4.00
2022-10-17T09:12:22.236Z,3.70
2022-10-17T09:15:20.232Z,3.63
2022-10-17T09:17:59.920Z,3.47
2022-10-17T09:20:32.599Z,6.57
2022-10-17T09:23:06.183Z,3.22
2022-10-17T09:25:45.053Z,3.47
2022-10-17T09:28:22.387Z,3.22
2022-10-17T09:31:00.835Z,3.33
2022-10-17T09:33:55.877Z,3.92
2022-10-17T09:36:23.516Z,3.30
2022-10-17T09:38:54.681Z,3.03
2022-10-17T09:41:44.124Z,3.03
2022-10-17T09:44:26.224Z,3.17
2022-10-17T09:47:39.253Z,3.42
2022-10-17T09:50:22.098Z,2.92
2022-10-17T09:52:50.918Z,3.05
2022-10-17T09:55:26.380Z,3.40
2022-10-17T09:58:05.343Z,3.00
2022-10-17T10:00:51.064Z,3.28
2022-10-17T10:03:27.565Z,3.38
2022-10-17T10:06:05.053Z,3.40
2022-10-17T10:08:58.724Z,3.53
2022-10-17T10:14:44.185Z,3.88
2022-10-17T10:17:29.728Z,4.18
2022-10-17T10:22:28.500Z,3.40
2022-10-17T10:25:15.737Z,3.72
2022-10-17T10:27:45.453Z,3.88
2022-10-17T10:30:29.000Z,3.92
2022-10-17T10:32:58.501Z,3.97
2022-10-17T10:35:36.852Z,3.55
2022-10-17T10:38:14.925Z,4.25
2022-10-17T10:40:55.484Z,3.88
2022-10-17T10:43:43.522Z,4.20
2022-10-17T10:46:26.746Z,4.28
2022-10-17T10:49:03.370Z,3.95
2022-10-17T10:51:38.446Z,3.90
2022-10-17T10:54:17.695Z,3.92
2022-10-17T10:56:51.264Z,3.67
2022-10-17T10:59:37.647Z,3.95
2022-10-17T11:02:08.073Z,3.40
2022-10-17T11:04:50.998Z,3.88
2022-10-17T11:07:36.709Z,3.22
2022-10-17T11:10:28.236Z,3.53
2022-10-17T11:13:32.536Z,3.63
2022-10-17T11:16:21.662Z,3.28
2022-10-17T11:18:59.744Z,3.15
2022-10-17T11:21:43.833Z,3.15
2022-10-17T11:24:36.104Z,3.30
2022-10-17T11:27:05.858Z,3.28
2022-10-17T11:29:39.583Z,3.38
2022-10-17T11:32:18.098Z,3.17
2022-10-17T11:34:54.793Z,2.80
2022-10-17T11:37:27.804Z,3.45
2022-10-17T11:40:06.448Z,3.28
2022-10-17T11:43:04.048Z,3.40
2022-10-17T11:45:36.929Z,3.38
2022-10-17T11:48:28.740Z,2.72
2022-10-17T11:54:19.219Z,2.75
2022-10-17T11:57:19.948Z,3.40
2022-10-17T11:59:59.061Z,3.15
2022-10-17T12:02:49.676Z,3.10
2022-10-17T12:05:29.239Z,2.70
2022-10-17T12:08:12.955Z,2.63
2022-10-17T12:10:58.431Z,3.13
2022-10-17T12:13:28.876Z,2.58
2022-10-17T12:16:20.987Z,2.80
2022-10-17T12:18:52.078Z,2.70
2022-10-17T12:21:19.531Z,2.42
2022-10-17T12:23:54.468Z,2.70
2022-10-17T12:26:30.144Z,2.65
2022-10-17T12:28:57.742Z,2.65
2022-10-17T12:31:33.312Z,2.20
2022-10-17T12:34:04.122Z,2.33
2022-10-17T12:36:33.834Z,2.70
2022-10-17T12:39:02.382Z,2.40
2022-10-17T12:41:38.957Z,2.17
2022-10-17T12:44:16.732Z,2.28
2022-10-17T12:46:44.544Z,2.30
2022-10-17T12:49:40.753Z,2.10
2022-10-17T12:52:32.565Z,2.15
2022-10-17T12:55:14.085Z,2.20
2022-10-17T12:58:03.904Z,1.92
2022-10-17T13:01:19.143Z,2.33
2022-10-17T13:03:45.963Z,2.30
2022-10-17T13:06:21.966Z,2.30
2022-10-17T13:09:05.580Z,2.30
2022-10-17T13:11:39.229Z,2.30
2022-10-17T13:14:14.691Z,2.47
2022-10-17T13:16:55.745Z,2.42
2022-10-17T13:19:26.796Z,2.30
2022-10-17T13:22:00.953Z,2.65
2022-10-17T13:24:39.001Z,2.38
2022-10-17T13:27:56.930Z,2.83
2022-10-17T13:30:39.187Z,2.47
2022-10-17T13:33:29.014Z,2.30
2022-10-17T13:36:01.033Z,2.55
2022-10-17T13:38:36.783Z,2.33
2022-10-17T13:41:40.242Z,2.75
2022-10-17T13:44:07.765Z,2.22
2022-10-17T13:46:38.499Z,2.17
2022-10-17T13:49:21.409Z,2.30
2022-10-17T13:51:53.621Z,2.47
2022-10-17T13:54:35.134Z,2.30
2022-10-17T13:57:04.713Z,2.15
2022-10-17T13:59:41.240Z,2.67
2022-10-17T14:02:16.532Z,2.58
2022-10-17T14:05:15.281Z,2.13
2022-10-17T14:10:43.305Z,2.10
2022-10-17T14:13:26.733Z,2.00
2022-10-17T14:15:57.531Z,1.98
2022-10-17T14:18:35.924Z,2.00
2022-10-17T14:24:25.742Z,2.40
2022-10-17T14:26:59.513Z,2.08
2022-10-17T14:29:52.962Z,2.30
2022-10-17T14:32:22.350Z,2.00
2022-10-17T14:34:58.359Z,2.10
2022-10-17T14:37:44.268Z,1.90
2022-10-17T14:40:21.099Z,2.10
2022-10-17T14:42:48.867Z,1.83
2022-10-17T14:45:27.017Z,2.42
2022-10-17T14:47:57.895Z,2.47
2022-10-17T14:50:29.966Z,2.30
2022-10-17T14:53:10.732Z,2.28
2022-10-17T14:55:54.851Z,2.28
2022-10-17T14:58:28.006Z,2.45
2022-10-17T15:03:26.946Z,2.60
2022-10-17T15:05:55.277Z,2.90
2022-10-17T15:08:25.167Z,2.28
2022-10-17T15:10:53.742Z,2.40
2022-10-17T15:13:30.357Z,2.30
2022-10-17T15:15:59.856Z,2.45
2022-10-17T15:18:29.298Z,2.47
2022-10-17T15:21:04.883Z,2.45
2022-10-17T15:23:45.272Z,2.50
2022-10-17T15:26:29.495Z,2.30
2022-10-17T15:28:57.050Z,2.20
2022-10-17T15:31:26.278Z,2.25
2022-10-17T15:33:54.134Z,2.20
2022-10-17T15:36:30.258Z,2.25
2022-10-17T15:39:00.598Z,2.30
2022-10-17T15:41:30.885Z,2.28
2022-10-17T15:43:59.557Z,2.50
2022-10-17T15:46:33.838Z,2.40
2022-10-17T15:49:07.681Z,2.47
2022-10-17T15:51:35.276Z,2.28
2022-10-17T15:54:02.869Z,2.70
2022-10-17T15:56:36.462Z,2.45
2022-10-17T15:59:13.388Z,2.13
2022-10-17T16:01:41.489Z,2.67
2022-10-17T16:04:14.800Z,2.72
2022-10-17T16:06:43.153Z,2.80
2022-10-17T16:09:11.052Z,2.83
2022-10-17T16:11:41.306Z,2.78
2022-10-17T16:14:13.482Z,3.13
2022-10-17T16:16:41.759Z,2.70
2022-10-17T16:19:09.348Z,3.13
2022-10-17T16:21:46.977Z,2.78
2022-10-17T16:24:15.576Z,2.92
2022-10-17T16:26:42.931Z,3.15
2022-10-17T16:29:10.764Z,2.85
2022-10-17T16:31:42.805Z,3.17
2022-10-17T16:34:14.904Z,3.30
2022-10-17T16:36:43.008Z,2.65
2022-10-17T16:39:11.174Z,3.00
2022-10-17T16:41:39.491Z,3.03
2022-10-17T16:44:09.122Z,2.97
2022-10-17T16:46:39.014Z,3.20
2022-10-17T16:49:06.764Z,3.22
2022-10-17T16:51:35.980Z,2.80
2022-10-17T16:54:04.875Z,3.20
2022-10-17T16:56:33.027Z,2.97
2022-10-17T16:59:01.636Z,3.30
2022-10-17T17:01:31.495Z,3.10
2022-10-17T17:03:59.624Z,3.05
2022-10-17T17:06:30.559Z,3.20
2022-10-17T17:08:59.301Z,3.10
2022-10-17T17:11:28.454Z,3.05
2022-10-17T17:13:57.703Z,3.08
2022-10-17T17:16:27.694Z,3.35
2022-10-17T17:19:01.141Z,3.70
2022-10-17T17:21:28.922Z,3.25
2022-10-17T17:23:58.330Z,3.88
2022-10-17T17:26:29.252Z,4.20
2022-10-17T17:28:59.172Z,3.15
2022-10-17T17:31:30.825Z,3.38
2022-10-17T17:33:59.011Z,3.47
2022-10-17T17:36:32.320Z,3.55
2022-10-17T17:39:01.646Z,3.58
2022-10-17T17:41:29.310Z,3.20
2022-10-17T17:43:57.095Z,3.45
2022-10-17T17:46:25.419Z,3.47
2022-10-17T17:48:54.773Z,3.60
2022-10-17T17:51:28.344Z,3.53
2022-10-17T17:53:57.330Z,3.42
2022-10-17T17:56:28.573Z,4.03
2022-10-17T17:59:01.589Z,3.70
2022-10-17T18:01:31.465Z,4.65
2022-10-17T18:03:59.552Z,4.18
2022-10-17T18:06:27.744Z,4.53
2022-10-17T18:08:58.529Z,4.78
2022-10-17T18:11:27.706Z,5.45
2022-10-17T18:13:56.833Z,5.07
2022-10-17T18:16:25.824Z,4.65
2022-10-17T18:18:53.943Z,4.72
2022-10-17T18:21:21.662Z,4.68
2022-10-17T18:23:50.097Z,5.30
2022-10-17T18:26:18.101Z,4.78
2022-10-17T18:28:45.722Z,4.88
2022-10-17T18:31:35.834Z,4.80
2022-10-17T18:34:05.046Z,5.10
2022-10-17T18:36:34.176Z,4.70
2022-10-17T18:39:02.446Z,5.28
2022-10-17T18:41:30.287Z,4.60
2022-10-17T18:43:58.219Z,4.30
2022-10-17T18:46:40.449Z,4.10
2022-10-17T18:49:10.061Z,4.85
2022-10-17T18:51:37.839Z,4.70
2022-10-17T18:54:12.544Z,5.13
2022-10-17T18:56:40.417Z,5.47
2022-10-17T18:59:09.497Z,4.32
2022-10-17T19:01:37.263Z,5.15
2022-10-17T19:04:04.651Z,4.68
2022-10-17T19:06:32.340Z,4.50
2022-10-17T19:09:01.712Z,4.70
2022-10-17T19:11:32.744Z,4.50
2022-10-17T19:14:02.238Z,5.03
2022-10-17T19:16:35.843Z,4.10
2022-10-17T19:19:06.771Z,5.20
2022-10-17T19:21:35.175Z,4.75
2022-10-17T19:24:05.489Z,4.57
2022-10-17T19:26:35.464Z,4.45
2022-10-17T19:29:04.288Z,4.32
2022-10-17T19:31:33.528Z,4.50
2022-10-17T19:34:00.949Z,4.03
2022-10-17T19:36:33.459Z,4.22
2022-10-17T19:39:08.531Z,3.67
2022-10-17T19:41:36.591Z,4.32
2022-10-17T19:44:04.195Z,4.15
2022-10-17T19:46:33.856Z,4.45
2022-10-17T19:49:02.092Z,3.80
2022-10-17T19:51:30.053Z,3.78
2022-10-17T19:54:02.791Z,4.22
2022-10-17T19:56:32.746Z,3.58
2022-10-17T19:59:00.161Z,3.72
2022-10-17T20:01:32.686Z,3.45
2022-10-17T20:04:00.355Z,3.90
2022-10-17T20:06:28.339Z,3.90
2022-10-17T20:08:56.495Z,3.50
2022-10-17T20:11:26.641Z,3.50
2022-10-17T20:13:55.241Z,3.58
2022-10-17T20:16:28.428Z,4.45
2022-10-17T20:19:05.208Z,4.03
2022-10-17T20:21:35.143Z,4.20
2022-10-17T20:24:05.616Z,3.63
2022-10-17T20:26:38.297Z,4.45
2022-10-17T20:29:14.808Z,4.00
2022-10-17T20:31:44.003Z,4.28
2022-10-17T20:34:15.672Z,4.25
2022-10-17T20:36:44.068Z,3.88
2022-10-17T20:39:13.608Z,4.47
2022-10-17T20:41:41.738Z,4.22
2022-10-17T20:44:10.182Z,3.97
2022-10-17T20:46:44.380Z,4.15
2022-10-17T20:49:18.751Z,4.25
2022-10-17T20:51:46.267Z,4.10
2022-10-17T20:54:13.911Z,3.97
2022-10-17T20:56:41.468Z,4.43
2022-10-17T20:59:13.582Z,4.63
2022-10-17T21:01:41.103Z,4.63
2022-10-17T21:04:40.663Z,4.40
2022-10-17T21:06:56.291Z,4.85
2022-10-17T21:09:24.062Z,4.20
2022-10-17T21:11:55.171Z,4.93
2022-10-17T21:14:24.488Z,4.18
2022-10-17T21:16:54.171Z,4.50
2022-10-17T21:19:23.429Z,4.32
2022-10-17T21:21:51.069Z,4.88
2022-10-17T21:24:20.746Z,4.47
2022-10-17T21:26:53.506Z,4.85
2022-10-17T21:29:22.432Z,5.30
2022-10-17T21:31:49.932Z,4.63
2022-10-17T21:34:20.970Z,4.53
2022-10-17T21:36:48.911Z,5.75
2022-10-17T21:39:16.910Z,4.75
2022-10-17T21:41:45.271Z,4.25
2022-10-17T21:44:18.355Z,5.13
2022-10-17T21:46:46.970Z,4.28
2022-10-17T21:49:17.740Z,4.55
2022-10-17T21:51:47.591Z,4.15
2022-10-17T21:54:17.508Z,4.57
2022-10-17T21:56:45.493Z,4.40
2022-10-17T21:59:13.089Z,4.05
2022-10-17T22:01:43.852Z,4.07
2022-10-17T22:04:16.895Z,4.00
2022-10-17T22:09:19.762Z,3.83
2022-10-17T22:11:49.637Z,4.03
2022-10-17T22:14:19.561Z,3.63
2022-10-17T22:16:50.839Z,3.90
2022-10-17T22:19:24.801Z,4.05
2022-10-17T22:21:53.324Z,3.65
2022-10-17T22:26:49.214Z,4.07
2022-10-17T22:29:17.081Z,3.75
2022-10-17T22:31:44.694Z,3.90
2022-10-17T22:34:14.759Z,3.90
2022-10-17T22:36:43.631Z,3.92
2022-10-17T22:39:11.883Z,4.25
2022-10-17T22:41:39.816Z,3.83
2022-10-17T22:44:07.392Z,4.13
2022-10-17T22:46:34.981Z,4.25
2022-10-17T22:49:02.909Z,4.18
2022-10-17T22:51:30.318Z,4.03
2022-10-17T22:53:57.753Z,4.15
2022-10-17T22:56:25.545Z,3.95
2022-10-17T22:58:55.933Z,3.65
2022-10-17T23:01:27.567Z,4.28
2022-10-17T23:03:55.551Z,4.00
2022-10-17T23:06:23.478Z,4.10
2022-10-17T23:08:51.159Z,4.38
2022-10-17T23:11:18.916Z,4.07
2022-10-17T23:13:46.374Z,4.43
2022-10-17T23:16:13.753Z,4.43
2022-10-17T23:18:41.333Z,4.50
2022-10-17T23:21:08.922Z,3.92
2022-10-17T23:23:38.072Z,4.00
2022-10-17T23:26:08.150Z,4.32
2022-10-17T23:28:36.060Z,4.30
2022-10-17T23:31:15.860Z,4.50
2022-10-17T23:33:44.883Z,4.25
2022-10-17T23:36:14.430Z,4.25
2022-10-17T23:38:43.560Z,4.53
2022-10-17T23:41:12.119Z,3.90
2022-10-17T23:43:39.854Z,3.70
2022-10-17T23:46:07.859Z,3.88
2022-10-17T23:48:36.122Z,3.67
2022-10-17T23:51:04.594Z,4.93
2022-10-17T23:53:31.991Z,3.85
2022-10-17T23:55:59.681Z,3.95
2022-10-17T23:58:27.135Z,3.95
